Главная страница
METAR-TAF:

METAR-TAF

Аэропорты :

Одесса, Украина

широта: 46-26N, долгота: 030-46E, высота над уровнем моря: 42 м

Текущие метеонаблюдения

Эта сводка был подготовлена 25 минут назад, в 07:30 UTC
Ветер 12 Узел от северный
Температура -7°C
Влажность 73%
Давление 1034 hPa
Видимость 10 км и более
Нет облачности ниже 1500 м, и нет кучево-дождевой облачности

METAR: UKOO 240730Z 35006MPS CAVOK M07/M11 Q1034 R34/410256 NOSIG

Время: 09:55 (07:55 UTC)

Прогноз

Эта сводка был подготовлена 2 часа и 45 минут назад, в 05:10 UTC
Прогноз действительный с 24-го 06 UTC до 25-го 06 UTC
Ветер 12 Узел от северный с порывами до 25 Узел
Видимость: 6000 м
Рассеянная облачность на высоте 700 фута
изменения
С 24-го 16 UTC до 24-го 17 UTC
Ветер 6 Узел от северо-северо-восточный
Видимость: 2100 м
дымка

TAF: UKOO 240510Z 2406/2506 36006G13MPS 6000 BKN007 BECMG 2416/2417 03003MPS 2100 BR TXM04/2412Z TNM10/2504Z

Метеонаблюдения и прогнозы для более 4000 аэропортов (сводки METAR и TAF).

Имеющиеся станции представлены на карте желтыми и красными точками.

Чтобы увидеть название станции, наведите на нее мышь.

Затем щелкните, чтобы увидеть метеонаблюдения и метеопрогнозы.

Управление картой: чтобы увеличить масштаб, щелкните зеленые кнопки с черным крестиком; чтобы уменьшить масштаб, щелкните зеленую кнопку с тире; для просмотра соседних карт щелкайте зеленые стрелки.


METAR-TAF: